Time;durP1;ratioP1;P1;durP2;ratioP2;P2;SDS_P1;SDS_P2;PMS_P1;PMS_P2;Temp;Humidity;BMP_temperature;BMP_pressure;BME280_temperature;BME280_humidity;BME280_pressure;Samples;Min_cycle;Max_cycle;Signal;HPM_P1;HPM_P2
2021/06/10 00:00:15;;;;;;;14.52;12.77;;;15.60;99.90;;;;;;6235320;28;20052;-80
2021/06/10 00:03:19;;;;;;;13.48;12.20;;;15.60;99.90;;;;;;6235725;28;20152;-80
2021/06/10 00:06:20;;;;;;;14.35;12.93;;;15.60;99.90;;;;;;6237123;28;20133;-79
2021/06/10 00:09:21;;;;;;;15.65;10.88;;;15.60;99.90;;;;;;6236473;28;20088;-80
2021/06/10 00:12:23;;;;;;;12.57;11.45;;;15.60;99.90;;;;;;6237020;28;20053;-79
2021/06/10 00:15:27;;;;;;;14.60;12.65;;;15.50;99.90;;;;;;6237649;28;20062;-79
2021/06/10 00:18:30;;;;;;;13.30;11.77;;;15.50;99.90;;;;;;6241142;28;20057;-79
2021/06/10 00:21:32;;;;;;;14.15;12.65;;;15.50;99.90;;;;;;6241453;28;20042;-79
2021/06/10 00:24:33;;;;;;;14.63;11.43;;;15.50;99.90;;;;;;6233550;28;20054;-78
2021/06/10 00:27:36;;;;;;;18.15;11.50;;;15.50;99.90;;;;;;6234379;28;20046;-78
2021/06/10 00:30:37;;;;;;;14.85;13.23;;;15.50;99.90;;;;;;6235038;28;20053;-78
2021/06/10 00:33:40;;;;;;;17.17;14.40;;;15.50;99.90;;;;;;6234695;28;20054;-78
2021/06/10 00:36:42;;;;;;;15.27;12.40;;;15.40;99.90;;;;;;6234253;28;20049;-78
2021/06/10 00:39:43;;;;;;;13.43;11.98;;;15.40;99.90;;;;;;6242417;28;20065;-78
2021/06/10 00:42:45;;;;;;;14.15;12.65;;;15.30;99.90;;;;;;6257752;28;20459;-79
2021/06/10 00:45:46;;;;;;;12.65;11.35;;;15.30;99.90;;;;;;6245447;28;20099;-78
2021/06/10 00:48:49;;;;;;;12.90;11.70;;;15.30;99.90;;;;;;6233726;28;20077;-78
2021/06/10 00:51:50;;;;;;;15.82;11.70;;;15.30;99.90;;;;;;6233366;28;20042;-79
2021/06/10 00:54:52;;;;;;;15.20;13.60;;;15.20;99.90;;;;;;6227357;28;20108;-78
2021/06/10 00:57:53;;;;;;;14.60;12.25;;;15.20;99.90;;;;;;6229603;28;20053;-79
2021/06/10 01:00:55;;;;;;;12.38;11.27;;;15.10;99.90;;;;;;6228484;28;20128;-79
2021/06/10 01:03:58;;;;;;;16.42;11.98;;;15.10;99.90;;;;;;6228578;28;20080;-79
2021/06/10 01:07:07;;;;;;;14.07;11.38;;;15.10;99.90;;;;;;6228728;28;20050;-80
2021/06/10 01:10:16;;;;;;;13.18;11.80;;;15.10;99.90;;;;;;6228178;28;20161;-78
2021/06/10 01:13:23;;;;;;;12.60;11.50;;;15.00;99.90;;;;;;6227827;28;20046;-79
2021/06/10 01:16:27;;;;;;;14.55;11.10;;;15.00;99.90;;;;;;6227610;28;20122;-78
2021/06/10 01:19:48;;;;;;;13.43;12.07;;;15.10;99.90;;;;;;6227784;28;20066;-79
2021/06/10 01:23:05;;;;;;;14.20;10.52;;;15.10;99.90;;;;;;6228251;28;20463;-79
2021/06/10 01:26:24;;;;;;;12.45;11.30;;;15.00;99.90;;;;;;6228663;28;20049;-79
2021/06/10 01:29:27;;;;;;;14.60;11.40;;;15.00;99.90;;;;;;6227748;28;20121;-79
2021/06/10 01:32:30;;;;;;;12.65;11.27;;;14.90;99.90;;;;;;6227602;28;20137;-80
2021/06/10 01:35:35;;;;;;;18.88;12.98;;;15.00;99.90;;;;;;6227982;28;20075;-78
2021/06/10 01:38:39;;;;;;;12.75;11.55;;;14.90;99.90;;;;;;6228007;28;20081;-79
2021/06/10 01:41:41;;;;;;;11.75;10.48;;;15.00;99.90;;;;;;6203714;28;20054;-78
2021/06/10 01:44:47;;;;;;;14.07;11.95;;;14.90;99.90;;;;;;6206665;28;20128;-80
2021/06/10 01:47:50;;;;;;;12.88;11.50;;;14.90;99.90;;;;;;6211452;28;20471;-79
2021/06/10 01:50:54;;;;;;;11.73;10.52;;;14.90;99.90;;;;;;6203978;28;20046;-79
2021/06/10 01:53:58;;;;;;;14.05;12.65;;;14.80;99.90;;;;;;6203072;28;20081;-78
2021/06/10 01:57:01;;;;;;;17.50;11.32;;;14.80;99.90;;;;;;6203074;28;20690;-80
2021/06/10 02:00:06;;;;;;;13.32;11.88;;;14.80;99.90;;;;;;6203356;28;20133;-80
2021/06/10 02:03:09;;;;;;;13.80;11.27;;;14.80;99.90;;;;;;6202263;28;20142;-80
2021/06/10 02:06:11;;;;;;;13.98;11.30;;;14.70;99.90;;;;;;6202391;28;20580;-80
2021/06/10 02:09:13;;;;;;;12.80;11.52;;;14.70;99.90;;;;;;6201865;28;20077;-80
2021/06/10 02:12:15;;;;;;;14.70;13.10;;;14.70;99.90;;;;;;6202089;28;20129;-80
2021/06/10 02:15:20;;;;;;;16.75;12.95;;;14.80;99.90;;;;;;6202293;28;20117;-79
2021/06/10 02:18:21;;;;;;;14.68;13.25;;;14.80;99.90;;;;;;6202400;28;20472;-79
2021/06/10 02:21:22;;;;;;;15.38;12.73;;;14.80;99.90;;;;;;6201927;28;20129;-80
2021/06/10 02:24:24;;;;;;;13.52;11.73;;;14.80;99.90;;;;;;6202026;28;20047;-80
2021/06/10 02:27:25;;;;;;;14.02;12.45;;;14.70;99.90;;;;;;6202609;28;20072;-80
2021/06/10 02:30:28;;;;;;;12.98;11.63;;;14.70;99.90;;;;;;6202052;28;20073;-78
2021/06/10 02:33:30;;;;;;;14.95;11.93;;;14.70;99.90;;;;;;6201946;28;20077;-78
2021/06/10 02:36:32;;;;;;;20.70;11.65;;;14.70;99.90;;;;;;6201833;28;20397;-79
2021/06/10 02:39:39;;;;;;;13.88;11.38;;;14.70;99.90;;;;;;6201659;28;20420;-80
2021/06/10 02:42:41;;;;;;;13.75;11.63;;;14.70;99.90;;;;;;6201490;28;20050;-80
2021/06/10 02:45:47;;;;;;;13.77;10.68;;;14.70;99.90;;;;;;6205342;28;20129;-80
2021/06/10 02:48:49;;;;;;;13.82;10.57;;;14.70;99.90;;;;;;6224674;28;20069;-79
2021/06/10 02:51:52;;;;;;;14.25;10.80;;;14.80;99.90;;;;;;6227688;28;20046;-79
2021/06/10 02:54:54;;;;;;;13.68;9.82;;;14.80;99.90;;;;;;6228005;28;20058;-79
2021/06/10 02:57:58;;;;;;;15.80;9.73;;;14.80;99.90;;;;;;6226579;28;20045;-79
2021/06/10 03:01:05;;;;;;;14.38;9.20;;;14.80;99.90;;;;;;6225296;28;20082;-79
2021/06/10 03:04:08;;;;;;;12.70;9.38;;;14.90;99.90;;;;;;6225263;28;20626;-80
2021/06/10 03:07:13;;;;;;;11.15;9.88;;;14.80;99.90;;;;;;6225596;28;20080;-80
2021/06/10 03:10:14;;;;;;;11.25;9.77;;;14.70;99.90;;;;;;6225616;28;20535;-80
2021/06/10 03:13:18;;;;;;;10.88;9.18;;;14.70;99.90;;;;;;6225794;28;20050;-79
2021/06/10 03:16:22;;;;;;;10.65;9.60;;;14.60;99.90;;;;;;6225095;28;20060;-78
2021/06/10 03:19:23;;;;;;;10.80;9.27;;;14.60;99.90;;;;;;6225692;28;20136;-80
2021/06/10 03:22:25;;;;;;;11.88;9.40;;;14.60;99.90;;;;;;6225632;28;20132;-78
2021/06/10 03:25:27;;;;;;;11.63;10.18;;;14.50;99.90;;;;;;6225124;28;20073;-79
2021/06/10 03:28:29;;;;;;;14.57;10.10;;;14.50;99.90;;;;;;6220992;28;20129;-78
2021/06/10 03:31:34;;;;;;;12.25;9.82;;;14.50;99.90;;;;;;6225320;28;20042;-79
2021/06/10 03:34:36;;;;;;;8.35;7.55;;;14.70;99.90;;;;;;6226353;28;20085;-78
2021/06/10 03:37:39;;;;;;;8.15;7.35;;;14.80;99.90;;;;;;6225897;28;20136;-79
2021/06/10 03:40:42;;;;;;;8.95;6.32;;;15.00;99.90;;;;;;6225426;28;20535;-78
2021/06/10 03:43:44;;;;;;;7.55;6.85;;;15.10;99.90;;;;;;6225820;28;20113;-79
2021/06/10 03:46:47;;;;;;;8.45;7.20;;;15.30;99.90;;;;;;6226246;28;20081;-79
2021/06/10 03:49:49;;;;;;;9.00;7.82;;;15.40;99.90;;;;;;6225569;28;20073;-78
2021/06/10 03:52:50;;;;;;;13.10;8.20;;;15.50;99.90;;;;;;6244085;28;20131;-79
2021/06/10 03:55:51;;;;;;;7.63;6.90;;;15.50;99.90;;;;;;6250385;28;20045;-80
2021/06/10 03:58:53;;;;;;;8.95;7.72;;;15.60;99.90;;;;;;6247720;28;20331;-79
2021/06/10 04:01:55;;;;;;;9.00;6.80;;;15.70;99.90;;;;;;6226166;28;20085;-79
2021/06/10 04:04:57;;;;;;;7.57;6.82;;;16.00;99.90;;;;;;6225529;28;20185;-78
2021/06/10 04:07:59;;;;;;;7.68;6.93;;;16.10;99.90;;;;;;6226049;28;20053;-79
2021/06/10 04:11:00;;;;;;;8.98;6.43;;;16.20;99.90;;;;;;6225961;28;20125;-79
2021/06/10 04:14:02;;;;;;;8.23;7.43;;;16.20;99.90;;;;;;6226574;28;20161;-79
2021/06/10 04:17:05;;;;;;;7.15;6.55;;;16.40;99.90;;;;;;6225505;28;20699;-79
2021/06/10 04:20:07;;;;;;;7.57;6.85;;;16.50;99.90;;;;;;6225980;28;20133;-79
2021/06/10 04:23:09;;;;;;;9.85;8.38;;;16.60;99.90;;;;;;6226373;28;20119;-79
2021/06/10 04:26:10;;;;;;;6.03;5.43;;;16.60;99.90;;;;;;6226357;28;20566;-79
2021/06/10 04:29:11;;;;;;;10.73;6.70;;;16.80;99.90;;;;;;6228208;28;20080;-79
2021/06/10 04:32:14;;;;;;;7.55;6.85;;;16.90;99.90;;;;;;6230909;28;20144;-79
2021/06/10 04:35:16;;;;;;;9.57;8.63;;;16.90;99.90;;;;;;6229771;28;20045;-79
2021/06/10 04:38:17;;;;;;;8.85;8.05;;;16.90;99.90;;;;;;6230105;28;20048;-78
2021/06/10 04:41:19;;;;;;;8.98;6.95;;;16.80;99.90;;;;;;6229270;28;20076;-80
2021/06/10 04:44:20;;;;;;;7.00;6.30;;;16.80;99.90;;;;;;6229889;28;20132;-79
2021/06/10 04:47:23;;;;;;;8.98;5.70;;;16.90;99.90;;;;;;6229217;28;20456;-79
2021/06/10 04:50:26;;;;;;;12.10;7.55;;;16.90;99.90;;;;;;6228553;28;20566;-79
2021/06/10 04:53:28;;;;;;;14.40;8.30;;;17.00;99.90;;;;;;6230307;28;20046;-78
2021/06/10 04:56:29;;;;;;;10.13;6.93;;;17.00;99.90;;;;;;6267271;28;20466;-79
2021/06/10 04:59:30;;;;;;;9.88;7.22;;;17.00;99.90;;;;;;6252927;28;20095;-80
2021/06/10 05:02:33;;;;;;;8.60;7.80;;;17.10;99.90;;;;;;6253234;28;20077;-79
2021/06/10 05:05:35;;;;;;;10.65;7.82;;;17.30;99.90;;;;;;6229691;28;20109;-78
2021/06/10 05:08:37;;;;;;;9.93;7.35;;;17.30;99.90;;;;;;6228482;28;20140;-79
2021/06/10 05:11:38;;;;;;;10.52;7.65;;;17.30;99.90;;;;;;6229017;28;20512;-79
2021/06/10 05:14:39;;;;;;;9.10;8.30;;;17.30;99.90;;;;;;6228289;28;20073;-78
2021/06/10 05:17:42;;;;;;;7.88;6.95;;;17.40;99.90;;;;;;6228403;28;20496;-79
2021/06/10 05:20:45;;;;;;;11.70;8.55;;;17.60;99.90;;;;;;6228010;28;20050;-79
2021/06/10 05:23:46;;;;;;;10.35;7.78;;;17.80;99.90;;;;;;6228396;28;20069;-79
2021/06/10 05:26:47;;;;;;;10.13;8.00;;;18.20;99.90;;;;;;6228747;28;20069;-80
2021/06/10 05:29:49;;;;;;;11.38;7.97;;;18.40;99.90;;;;;;6227803;28;20055;-79
2021/06/10 05:32:51;;;;;;;10.70;8.45;;;18.60;99.90;;;;;;6227973;28;20073;-79
2021/06/10 05:35:53;;;;;;;9.15;7.75;;;19.00;99.90;;;;;;6227897;28;20129;-79
2021/06/10 05:38:54;;;;;;;8.05;7.25;;;19.20;99.90;;;;;;6226374;28;20131;-79
2021/06/10 05:41:56;;;;;;;9.40;7.22;;;19.40;99.90;;;;;;6228657;28;20187;-78
2021/06/10 05:44:57;;;;;;;7.10;6.40;;;19.80;99.90;;;;;;6228141;28;20125;-78
2021/06/10 05:48:00;;;;;;;7.13;6.50;;;20.10;99.90;;;;;;6227185;28;20522;-79
2021/06/10 05:51:01;;;;;;;8.43;6.72;;;20.30;99.90;;;;;;6226239;28;20453;-79
2021/06/10 05:54:03;;;;;;;7.00;6.38;;;20.40;99.90;;;;;;6227409;28;20104;-78
2021/06/10 05:57:05;;;;;;;9.45;7.88;;;20.50;99.90;;;;;;6227420;28;20070;-79
2021/06/10 06:00:08;;;;;;;7.70;6.72;;;20.60;99.90;;;;;;6227900;28;20077;-78
2021/06/10 06:03:12;;;;;;;8.43;7.57;;;20.90;99.90;;;;;;6226093;28;20045;-78
2021/06/10 06:06:17;;;;;;;9.32;7.55;;;21.30;98.60;;;;;;6222019;28;20046;-79
2021/06/10 06:09:19;;;;;;;8.48;7.70;;;22.00;96.60;;;;;;6227485;28;20049;-79
2021/06/10 06:12:22;;;;;;;7.75;6.95;;;22.30;95.20;;;;;;6227795;28;20056;-79
2021/06/10 06:15:23;;;;;;;8.80;7.90;;;22.60;94.70;;;;;;6227174;28;20038;-79
2021/06/10 06:18:26;;;;;;;8.45;7.57;;;22.40;94.30;;;;;;6227303;28;20461;-79
2021/06/10 06:21:27;;;;;;;8.45;7.55;;;21.90;95.40;;;;;;6228185;28;20409;-78
2021/06/10 06:24:30;;;;;;;8.15;7.35;;;21.60;95.90;;;;;;6229719;28;20080;-79
2021/06/10 06:27:32;;;;;;;8.95;7.82;;;21.60;96.70;;;;;;6227180;28;20048;-79
2021/06/10 06:30:33;;;;;;;10.60;7.90;;;22.10;96.10;;;;;;6226948;28;20188;-79
2021/06/10 06:33:36;;;;;;;8.43;7.63;;;22.80;94.60;;;;;;6226929;28;20049;-78
2021/06/10 06:36:38;;;;;;;8.82;7.47;;;23.30;92.60;;;;;;6226596;28;20538;-79
2021/06/10 06:39:40;;;;;;;7.90;7.10;;;23.60;91.90;;;;;;6229773;28;20068;-79
2021/06/10 06:42:41;;;;;;;8.80;7.97;;;24.00;91.60;;;;;;6230761;28;20050;-77
2021/06/10 06:45:42;;;;;;;9.07;7.57;;;24.20;90.50;;;;;;6229377;28;20061;-77
2021/06/10 06:48:45;;;;;;;7.50;6.80;;;24.40;90.00;;;;;;6228238;28;20060;-77
2021/06/10 06:51:47;;;;;;;8.85;7.95;;;24.70;89.80;;;;;;6228082;28;20046;-77
2021/06/10 06:54:48;;;;;;;8.40;7.60;;;24.90;87.90;;;;;;6224855;28;20099;-77
2021/06/10 06:57:49;;;;;;;9.25;8.40;;;24.90;86.20;;;;;;6224281;28;20049;-77
2021/06/10 07:00:51;;;;;;;13.48;8.60;;;24.80;87.30;;;;;;6223392;28;20578;-77
2021/06/10 07:03:53;;;;;;;10.32;9.38;;;24.70;88.10;;;;;;6225438;28;20068;-78
2021/06/10 07:06:55;;;;;;;8.75;7.95;;;24.60;87.90;;;;;;6222918;28;20069;-76
2021/06/10 07:09:57;;;;;;;10.23;8.63;;;24.40;88.30;;;;;;6223017;28;20054;-77
2021/06/10 07:12:58;;;;;;;8.68;7.90;;;24.30;88.60;;;;;;6224346;28;20050;-77
2021/06/10 07:16:01;;;;;;;10.20;8.07;;;24.30;89.40;;;;;;6224935;28;20081;-78
2021/06/10 07:19:03;;;;;;;9.25;8.35;;;24.70;89.10;;;;;;6224576;28;20061;-77
2021/06/10 07:22:05;;;;;;;12.57;8.57;;;24.90;87.20;;;;;;6225687;28;20054;-78
2021/06/10 07:25:08;;;;;;;9.70;8.75;;;25.20;86.40;;;;;;6224630;28;20045;-77
2021/06/10 07:28:10;;;;;;;11.43;8.18;;;25.40;84.80;;;;;;6224525;28;20065;-77
2021/06/10 07:31:11;;;;;;;8.45;7.60;;;25.60;83.00;;;;;;6224202;28;20499;-78
2021/06/10 07:34:14;;;;;;;7.25;6.55;;;25.70;83.40;;;;;;6224991;28;20112;-77
2021/06/10 07:37:15;;;;;;;8.05;7.35;;;26.00;81.70;;;;;;6224002;28;20072;-78
2021/06/10 07:40:18;;;;;;;9.18;8.27;;;26.20;79.60;;;;;;6223473;28;20045;-77
2021/06/10 07:43:20;;;;;;;9.05;8.15;;;26.40;78.60;;;;;;6224629;28;20116;-78
2021/06/10 07:46:21;;;;;;;10.75;6.70;;;26.50;78.70;;;;;;6225043;28;20050;-77
2021/06/10 07:49:24;;;;;;;12.68;8.23;;;26.70;78.20;;;;;;6223993;28;20077;-76
2021/06/10 07:52:25;;;;;;;10.55;8.13;;;26.80;75.40;;;;;;6222932;28;20065;-78
2021/06/10 07:55:27;;;;;;;14.45;9.15;;;26.80;75.40;;;;;;6223961;28;20072;-77
2021/06/10 07:58:28;;;;;;;9.02;8.23;;;26.80;72.50;;;;;;6224496;28;20046;-78
2021/06/10 08:01:30;;;;;;;8.23;7.53;;;26.80;74.40;;;;;;6224152;28;20419;-78
2021/06/10 08:04:32;;;;;;;8.23;7.53;;;27.10;73.40;;;;;;6230335;28;20050;-79
2021/06/10 08:07:34;;;;;;;10.48;8.65;;;27.40;72.20;;;;;;6230759;28;20045;-79
2021/06/10 08:10:35;;;;;;;8.95;8.15;;;27.70;71.50;;;;;;6207930;28;20049;-80
2021/06/10 08:13:37;;;;;;;9.13;8.25;;;28.10;69.90;;;;;;6230422;28;20081;-80
2021/06/10 08:16:39;;;;;;;10.23;9.43;;;28.40;68.00;;;;;;6230427;28;20070;-78
2021/06/10 08:19:41;;;;;;;10.32;9.18;;;28.70;66.70;;;;;;6230397;28;20048;-80
2021/06/10 08:22:43;;;;;;;8.88;7.85;;;29.10;65.20;;;;;;6231194;28;20056;-80
2021/06/10 08:25:44;;;;;;;9.63;8.65;;;29.50;64.50;;;;;;6230843;28;20132;-79
2021/06/10 08:28:46;;;;;;;9.85;8.98;;;30.10;62.30;;;;;;6228589;28;20125;-78
2021/06/10 08:31:47;;;;;;;14.90;10.23;;;30.50;60.70;;;;;;6229034;28;20058;-79
2021/06/10 08:34:50;;;;;;;12.57;11.25;;;30.80;57.50;;;;;;6229914;28;20572;-79
2021/06/10 08:37:52;;;;;;;10.00;9.15;;;30.80;56.20;;;;;;6229510;28;20053;-78
2021/06/10 08:40:53;;;;;;;10.27;9.38;;;31.20;56.00;;;;;;6229329;28;20106;-79
2021/06/10 08:43:56;;;;;;;12.70;11.55;;;31.60;54.50;;;;;;6228805;28;20108;-79
2021/06/10 08:46:58;;;;;;;11.65;10.45;;;31.90;52.80;;;;;;6229571;28;20137;-78
2021/06/10 08:50:03;;;;;;;12.20;10.70;;;32.30;52.00;;;;;;6229179;28;20045;-80
2021/06/10 08:53:07;;;;;;;22.40;14.50;;;32.20;51.20;;;;;;6242453;28;20054;-80
2021/06/10 08:56:08;;;;;;;10.88;9.75;;;32.30;50.90;;;;;;6253793;28;20507;-78
2021/06/10 08:59:10;;;;;;;16.25;12.07;;;32.20;51.00;;;;;;6252720;28;20043;-79
2021/06/10 09:02:11;;;;;;;17.85;11.45;;;32.40;51.40;;;;;;6254497;28;20111;-81
2021/06/10 09:05:15;;;;;;;12.73;11.60;;;32.60;51.20;;;;;;6254165;28;20049;-80
2021/06/10 09:08:21;;;;;;;11.43;10.25;;;32.90;50.40;;;;;;6254055;28;20103;-80
2021/06/10 09:11:24;;;;;;;11.65;10.63;;;33.40;49.80;;;;;;6254387;28;20064;-81
2021/06/10 09:14:25;;;;;;;12.05;10.82;;;33.40;48.80;;;;;;6252736;28;20076;-80
2021/06/10 09:17:31;;;;;;;10.25;9.25;;;33.60;48.20;;;;;;6253875;28;20132;-80
2021/06/10 09:20:41;;;;;;;14.77;12.48;;;33.80;49.00;;;;;;6255590;28;20138;-81
2021/06/10 09:23:42;;;;;;;11.68;10.68;;;33.90;46.80;;;;;;6256899;28;20045;-81
2021/06/10 09:26:44;;;;;;;11.88;10.68;;;33.70;47.70;;;;;;6256097;28;20053;-80
2021/06/10 09:29:48;;;;;;;11.32;9.05;;;33.80;51.20;;;;;;6256586;28;20045;-81
2021/06/10 09:32:49;;;;;;;10.45;9.43;;;33.80;46.60;;;;;;6257084;28;20041;-80
2021/06/10 09:35:54;;;;;;;9.13;8.23;;;33.70;47.20;;;;;;6269623;28;20033;-80
2021/06/10 09:39:08;;;;;;;9.02;8.23;;;33.80;46.60;;;;;;6261067;28;20037;-80
2021/06/10 09:42:12;;;;;;;10.15;9.25;;;33.80;47.20;;;;;;6252442;28;20469;-80
2021/06/10 09:45:15;;;;;;;12.90;11.27;;;33.80;47.00;;;;;;6252530;28;20046;-80
2021/06/10 09:48:30;;;;;;;8.35;7.57;;;33.80;46.10;;;;;;6252102;28;20052;-80
2021/06/10 09:51:32;;;;;;;11.35;9.68;;;33.80;46.90;;;;;;6251623;28;20037;-79
2021/06/10 09:54:45;;;;;;;10.65;9.35;;;33.70;46.00;;;;;;6250658;28;20145;-79
2021/06/10 09:57:46;;;;;;;10.00;9.10;;;33.80;46.80;;;;;;6226826;28;20090;-80
2021/06/10 10:00:52;;;;;;;11.90;10.80;;;33.80;47.60;;;;;;6226635;28;20073;-79
2021/06/10 10:03:54;;;;;;;11.65;10.52;;;33.90;46.50;;;;;;6226861;28;20613;-79
2021/06/10 10:06:56;;;;;;;12.50;11.35;;;34.10;46.20;;;;;;6227132;28;20049;-79
2021/06/10 10:09:59;;;;;;;11.23;10.20;;;33.80;46.70;;;;;;6226882;28;20175;-79
2021/06/10 10:13:00;;;;;;;10.98;9.98;;;33.50;47.40;;;;;;6226561;28;20064;-79
2021/06/10 10:16:04;;;;;;;12.20;10.52;;;33.40;48.50;;;;;;6226588;28;20507;-79
2021/06/10 10:19:05;;;;;;;16.90;12.27;;;33.10;48.40;;;;;;6227256;28;20049;-79
2021/06/10 10:22:12;;;;;;;11.80;10.48;;;32.80;48.90;;;;;;6227112;28;20092;-79
2021/06/10 10:25:13;;;;;;;12.18;10.90;;;32.40;49.80;;;;;;6226332;28;20053;-79
2021/06/10 10:28:15;;;;;;;15.73;10.35;;;32.00;50.60;;;;;;6226318;28;20068;-79
2021/06/10 10:31:17;;;;;;;10.57;9.45;;;31.90;51.90;;;;;;6226325;28;20566;-79
2021/06/10 10:34:27;;;;;;;12.65;11.35;;;31.80;50.70;;;;;;6227130;28;20081;-79
2021/06/10 10:37:30;;;;;;;10.65;9.70;;;31.70;50.40;;;;;;6226188;28;20049;-79
2021/06/10 10:40:31;;;;;;;11.25;10.07;;;31.60;51.10;;;;;;6226295;28;20092;-78
2021/06/10 10:43:33;;;;;;;11.38;10.27;;;31.70;51.40;;;;;;6226451;28;20507;-80
2021/06/10 10:46:34;;;;;;;10.32;9.32;;;31.60;51.10;;;;;;6226814;28;20057;-79
2021/06/10 10:49:43;;;;;;;11.38;10.27;;;31.50;52.40;;;;;;6226513;28;20085;-80
2021/06/10 10:52:55;;;;;;;9.65;8.70;;;31.60;52.40;;;;;;6226403;28;20057;-80
2021/06/10 10:56:06;;;;;;;10.52;9.63;;;31.80;51.80;;;;;;6225295;28;20046;-79
2021/06/10 10:59:13;;;;;;;12.23;9.88;;;31.90;52.00;;;;;;6225448;28;20065;-78
2021/06/10 11:02:19;;;;;;;11.63;10.52;;;31.80;52.00;;;;;;6226578;28;20054;-78
2021/06/10 11:05:31;;;;;;;10.68;9.82;;;31.90;51.60;;;;;;6225759;28;20527;-79
2021/06/10 11:09:06;;;;;;;11.13;10.13;;;32.00;51.00;;;;;;6225318;28;20080;-78
2021/06/10 11:12:11;;;;;;;10.95;9.85;;;32.20;50.80;;;;;;6225387;28;20077;-79
2021/06/10 11:15:48;;;;;;;13.15;10.75;;;32.20;48.90;;;;;;6224486;28;20499;-78
2021/06/10 11:18:52;;;;;;;10.85;9.95;;;32.20;48.90;;;;;;6225203;28;20042;-79
2021/06/10 11:21:54;;;;;;;13.13;11.38;;;32.20;48.40;;;;;;6225730;28;20431;-79
2021/06/10 11:24:57;;;;;;;10.98;9.85;;;32.30;48.50;;;;;;6225756;28;20060;-79
2021/06/10 11:28:07;;;;;;;10.68;8.85;;;32.40;48.70;;;;;;6226043;28;20038;-80
2021/06/10 11:31:14;;;;;;;9.48;8.63;;;32.50;48.60;;;;;;6225921;28;20046;-80
2021/06/10 11:34:28;;;;;;;13.18;9.13;;;32.60;47.80;;;;;;6225685;28;20089;-79
2021/06/10 11:37:35;;;;;;;9.70;8.63;;;32.70;46.10;;;;;;6225474;28;20515;-79
2021/06/10 11:40:38;;;;;;;10.13;9.00;;;32.90;51.70;;;;;;6225179;28;20061;-79
2021/06/10 11:43:41;;;;;;;10.50;9.45;;;33.10;54.90;;;;;;6225247;28;20241;-79
2021/06/10 11:46:42;;;;;;;8.75;7.95;;;33.00;45.70;;;;;;6229420;28;20050;-78
2021/06/10 11:49:44;;;;;;;10.70;9.32;;;33.10;46.20;;;;;;6235241;28;20053;-78
2021/06/10 11:52:53;;;;;;;8.90;8.05;;;33.10;45.10;;;;;;6234153;28;20049;-78
2021/06/10 11:55:57;;;;;;;11.48;7.60;;;33.00;44.80;;;;;;6233426;28;20066;-78
2021/06/10 11:59:14;;;;;;;8.98;7.57;;;32.90;44.20;;;;;;6233180;28;20056;-78
2021/06/10 12:02:23;;;;;;;9.57;8.70;;;32.90;44.40;;;;;;6229018;28;20216;-78
2021/06/10 12:05:26;;;;;;;8.18;7.43;;;32.80;43.40;;;;;;6226705;28;20041;-78
2021/06/10 12:08:31;;;;;;;9.00;6.88;;;32.80;44.20;;;;;;6227080;28;20097;-79
2021/06/10 12:11:34;;;;;;;8.80;6.65;;;32.90;44.20;;;;;;6225557;28;20450;-78
2021/06/10 12:14:39;;;;;;;8.68;7.70;;;32.90;43.30;;;;;;6225231;28;20639;-79
2021/06/10 12:17:51;;;;;;;7.57;6.78;;;32.90;41.40;;;;;;6225763;28;20077;-79
2021/06/10 12:20:55;;;;;;;5.55;5.05;;;32.90;42.00;;;;;;6224697;28;20128;-78
2021/06/10 12:23:59;;;;;;;5.70;5.30;;;32.90;40.50;;;;;;6224589;28;20065;-79
2021/06/10 12:27:13;;;;;;;5.78;5.07;;;33.00;39.80;;;;;;6224694;28;20057;-78
2021/06/10 12:30:22;;;;;;;5.13;4.72;;;33.10;39.70;;;;;;6224971;28;20136;-79
2021/06/10 12:33:24;;;;;;;7.68;7.03;;;33.20;39.30;;;;;;6224363;28;20129;-78
2021/06/10 12:36:32;;;;;;;7.57;6.88;;;33.20;40.60;;;;;;6225125;28;20069;-78
2021/06/10 12:39:34;;;;;;;7.78;7.13;;;33.30;40.10;;;;;;6224119;28;20060;-78
2021/06/10 12:42:37;;;;;;;8.27;7.32;;;33.30;39.70;;;;;;6225430;28;20109;-79
2021/06/10 12:45:39;;;;;;;6.22;5.72;;;33.40;40.20;;;;;;6224797;28;20568;-78
2021/06/10 12:48:40;;;;;;;7.72;7.05;;;33.50;41.60;;;;;;6224745;28;20504;-78
2021/06/10 12:51:43;;;;;;;7.63;6.80;;;33.50;42.70;;;;;;6228725;28;20048;-77
2021/06/10 12:54:46;;;;;;;9.95;7.57;;;33.50;43.40;;;;;;6227268;28;20107;-78
2021/06/10 12:57:55;;;;;;;10.38;8.13;;;33.50;43.00;;;;;;6226105;28;20053;-78
2021/06/10 13:01:07;;;;;;;9.15;8.35;;;33.70;42.50;;;;;;6225787;28;20069;-78
2021/06/10 13:04:09;;;;;;;8.93;8.02;;;33.70;42.60;;;;;;6227382;28;20133;-78
2021/06/10 13:07:25;;;;;;;7.68;7.07;;;33.70;42.80;;;;;;6227690;28;20128;-78
2021/06/10 13:10:36;;;;;;;9.90;9.00;;;33.50;43.80;;;;;;6227011;28;20050;-78
2021/06/10 13:13:39;;;;;;;9.15;8.35;;;33.40;43.70;;;;;;6226533;28;20085;-78
2021/06/10 13:16:52;;;;;;;7.65;7.05;;;33.30;44.10;;;;;;6227834;28;20125;-78
2021/06/10 13:19:53;;;;;;;8.82;7.75;;;33.20;43.40;;;;;;6229880;28;20115;-77
2021/06/10 13:23:00;;;;;;;10.95;7.38;;;33.20;44.60;;;;;;6230531;28;20100;-78
2021/06/10 13:26:03;;;;;;;;;;;33.20;43.80;;;;;;6232035;28;20049;-79
2021/06/10 13:29:09;;;;;;;9.35;7.88;;;33.10;44.40;;;;;;6229664;28;20028;-78
2021/06/10 13:32:22;;;;;;;8.70;7.90;;;33.20;43.60;;;;;;6243700;28;20060;-79
2021/06/10 13:35:25;;;;;;;8.13;6.75;;;33.30;43.30;;;;;;6256326;28;20049;-79
2021/06/10 13:38:26;;;;;;;7.28;6.45;;;33.30;42.40;;;;;;6257602;28;20053;-79
2021/06/10 13:41:30;;;;;;;7.63;6.93;;;33.40;42.30;;;;;;6255387;28;20081;-78
2021/06/10 13:44:33;;;;;;;7.07;6.47;;;33.30;41.80;;;;;;6255959;28;20077;-79
2021/06/10 13:47:34;;;;;;;15.07;8.30;;;33.10;41.00;;;;;;6279015;28;20063;-77
2021/06/10 13:50:35;;;;;;;7.45;6.72;;;33.00;40.80;;;;;;6281263;28;20057;-78
2021/06/10 13:53:37;;;;;;;6.38;5.90;;;33.00;40.30;;;;;;6280974;28;20036;-78
2021/06/10 13:56:39;;;;;;;7.03;6.40;;;33.00;40.90;;;;;;6280557;28;20033;-77
2021/06/10 13:59:41;;;;;;;6.50;5.97;;;33.10;40.70;;;;;;6276648;28;20036;-78
2021/06/10 14:02:43;;;;;;;7.15;5.82;;;33.20;40.10;;;;;;6280269;28;20034;-77
2021/06/10 14:05:44;;;;;;;6.30;5.75;;;33.10;39.20;;;;;;6281009;28;20030;-79
2021/06/10 14:08:45;;;;;;;6.45;5.85;;;33.10;39.90;;;;;;6279806;28;20033;-78
2021/06/10 14:11:47;;;;;;;6.22;5.70;;;33.00;40.00;;;;;;6279438;28;20037;-78
2021/06/10 14:14:49;;;;;;;6.88;5.88;;;33.10;41.20;;;;;;6279183;28;20040;-77
2021/06/10 14:17:51;;;;;;;5.97;4.95;;;33.10;39.40;;;;;;6270034;28;20049;-77
2021/06/10 14:20:53;;;;;;;6.72;6.10;;;33.00;39.40;;;;;;6261901;28;20069;-78
2021/06/10 14:23:56;;;;;;;6.07;5.63;;;33.00;39.60;;;;;;6256415;28;20084;-79
2021/06/10 14:26:58;;;;;;;6.55;5.95;;;33.10;39.70;;;;;;6254538;28;20101;-77
2021/06/10 14:30:11;;;;;;;5.38;4.90;;;33.10;39.70;;;;;;6248497;28;20507;-76
2021/06/10 14:33:13;;;;;;;6.45;5.95;;;33.10;38.40;;;;;;6247607;28;20055;-76
2021/06/10 14:36:14;;;;;;;5.78;5.28;;;32.90;38.30;;;;;;6247419;28;20053;-76
2021/06/10 14:39:15;;;;;;;5.72;5.25;;;32.90;38.20;;;;;;6247951;28;20154;-77
2021/06/10 14:42:17;;;;;;;5.20;4.68;;;33.00;38.50;;;;;;6248304;28;20049;-77
2021/06/10 14:45:20;;;;;;;5.50;4.75;;;33.10;37.90;;;;;;6247947;28;20081;-77
2021/06/10 14:48:22;;;;;;;5.82;5.05;;;33.30;38.40;;;;;;6247934;28;20503;-76
2021/06/10 14:51:23;;;;;;;6.47;5.97;;;33.30;37.50;;;;;;6248362;28;20211;-77
2021/06/10 14:54:25;;;;;;;6.65;6.05;;;33.20;39.30;;;;;;6248905;28;20140;-77
2021/06/10 14:57:26;;;;;;;7.75;7.07;;;33.10;39.90;;;;;;6247812;28;20052;-77
2021/06/10 15:00:29;;;;;;;6.90;6.30;;;33.00;40.80;;;;;;6246054;28;20521;-76
2021/06/10 15:03:30;;;;;;;7.20;5.38;;;33.00;39.60;;;;;;6248002;28;20052;-76
2021/06/10 15:06:31;;;;;;;6.00;5.40;;;33.10;39.30;;;;;;6248379;28;20054;-77
2021/06/10 15:09:33;;;;;;;6.13;5.53;;;33.00;39.60;;;;;;6247272;28;20041;-78
2021/06/10 15:12:34;;;;;;;8.02;5.60;;;33.00;37.80;;;;;;6246694;28;20128;-77
2021/06/10 15:15:37;;;;;;;6.60;6.00;;;32.80;37.80;;;;;;6247455;28;20124;-77
2021/06/10 15:18:38;;;;;;;5.75;5.20;;;32.70;38.80;;;;;;6247388;28;20048;-77
2021/06/10 15:21:40;;;;;;;7.97;6.28;;;32.70;39.10;;;;;;6247998;28;20123;-76
2021/06/10 15:24:42;;;;;;;6.80;5.85;;;32.60;39.10;;;;;;6247736;28;20049;-77
2021/06/10 15:27:43;;;;;;;6.30;5.80;;;32.50;39.90;;;;;;6247275;28;20115;-77
2021/06/10 15:30:46;;;;;;;7.55;5.65;;;32.50;39.10;;;;;;6241008;28;20148;-76
2021/06/10 15:33:47;;;;;;;8.07;6.20;;;32.60;39.50;;;;;;6247707;28;20183;-77
2021/06/10 15:36:49;;;;;;;7.00;6.32;;;32.60;39.80;;;;;;6248248;28;20093;-77
2021/06/10 15:39:50;;;;;;;7.18;6.43;;;32.30;39.10;;;;;;6247944;28;20073;-78
2021/06/10 15:42:51;;;;;;;8.15;7.45;;;31.80;40.70;;;;;;6247426;28;20108;-77